Terminal Aerodrome Forecast
Issued by NWS

Current Version | Previous Version | Text Only | Print | Product List | Glossary Off
Versions: 1 2 3 4 5 6 7 8 9 10 11 12 13 14 15 16 17 18 19 20 21 22 23 24 25

827
FTUS41 KPBZ 101603 AAB
TAFHLG
TAF AMD
KHLG 101603Z 1016/1112 25012G20KT 5SM -SHSN BKN015 OVC040
     FM102200 26010G20KT 1 1/2SM -SHSN OVC012
     FM110300 27010G19KT 4SM -SHSN OVC012=

USA.gov is the U.S. government's official web portal to all federal, state and local government web resources and services.